createdAt,value
2019-02-14T00:00:27.226Z,8.72
2019-02-14T00:02:59.064Z,8.60
2019-02-14T00:05:29.167Z,8.65
2019-02-14T00:07:59.334Z,8.63
2019-02-14T00:10:47.012Z,8.73
2019-02-14T00:13:17.266Z,8.58
2019-02-14T00:15:47.545Z,8.46
2019-02-14T00:18:18.094Z,8.44
2019-02-14T00:20:48.261Z,8.49
2019-02-14T00:23:18.628Z,8.55
2019-02-14T00:25:48.847Z,8.39
2019-02-14T00:28:19.089Z,8.29
2019-02-14T00:30:49.417Z,8.29
2019-02-14T00:33:19.557Z,8.25
2019-02-14T00:35:49.727Z,8.35
2019-02-14T00:38:19.977Z,8.30
2019-02-14T00:40:51.051Z,8.29
2019-02-14T00:43:21.243Z,8.22
2019-02-14T00:45:52.205Z,8.09
2019-02-14T00:48:22.515Z,8.05
2019-02-14T00:50:53.017Z,8.21
2019-02-14T00:53:23.465Z,8.20
2019-02-14T00:55:53.639Z,8.11
2019-02-14T00:58:23.820Z,8.22
2019-02-14T01:00:54.045Z,8.29
2019-02-14T01:03:24.312Z,8.33
2019-02-14T01:05:54.540Z,8.27
2019-02-14T01:08:24.805Z,8.09
2019-02-14T01:10:57.012Z,8.22
2019-02-14T01:13:27.231Z,8.09
2019-02-14T01:15:57.425Z,8.17
2019-02-14T01:18:27.818Z,8.19
2019-02-14T01:20:58.047Z,8.09
2019-02-14T01:23:28.199Z,8.16
2019-02-14T01:25:58.593Z,8.11
2019-02-14T01:28:28.789Z,8.01
2019-02-14T01:31:00.141Z,8.03
2019-02-14T01:33:30.324Z,7.95
2019-02-14T01:36:00.585Z,7.90
2019-02-14T01:38:30.904Z,7.84
2019-02-14T01:41:01.177Z,7.77
2019-02-14T01:43:31.757Z,7.82
2019-02-14T01:46:01.901Z,7.75
2019-02-14T01:48:32.229Z,7.76
2019-02-14T01:51:02.435Z,7.63
2019-02-14T01:53:32.669Z,7.69
2019-02-14T01:56:02.867Z,7.60
2019-02-14T01:58:33.551Z,7.50
2019-02-14T02:01:04.101Z,7.67
2019-02-14T02:03:34.263Z,7.63
2019-02-14T02:06:04.542Z,7.47
2019-02-14T02:08:34.797Z,7.48
2019-02-14T02:11:05.811Z,7.34
2019-02-14T02:13:35.969Z,7.31
2019-02-14T02:16:06.076Z,7.39
2019-02-14T02:18:36.980Z,7.37
2019-02-14T02:21:08.377Z,7.33
2019-02-14T02:23:38.578Z,7.38
2019-02-14T02:26:08.807Z,7.36
2019-02-14T02:28:38.915Z,7.27
2019-02-14T02:31:09.137Z,7.28
2019-02-14T02:33:39.336Z,7.27
2019-02-14T02:36:10.599Z,7.27
2019-02-14T02:38:40.747Z,7.27
2019-02-14T02:41:10.972Z,7.03
2019-02-14T02:43:41.113Z,7.01
2019-02-14T02:46:11.257Z,7.14
2019-02-14T02:48:42.435Z,7.14
2019-02-14T02:51:12.590Z,7.05
2019-02-14T02:53:42.784Z,7.06
2019-02-14T02:56:13.080Z,7.03
2019-02-14T02:58:43.258Z,6.94
2019-02-14T03:01:13.442Z,6.61
2019-02-14T03:03:43.670Z,6.85
2019-02-14T03:06:13.851Z,6.84
2019-02-14T03:08:44.448Z,6.92
2019-02-14T03:11:14.682Z,6.82
2019-02-14T03:13:49.305Z,6.81
2019-02-14T03:16:19.503Z,6.72
2019-02-14T03:18:50.181Z,6.69
2019-02-14T03:21:20.373Z,6.33
2019-02-14T03:23:50.519Z,6.52
2019-02-14T03:26:20.975Z,6.66
2019-02-14T03:28:51.162Z,6.70
2019-02-14T03:31:21.309Z,6.70
2019-02-14T03:33:51.465Z,6.69
2019-02-14T03:36:21.869Z,6.70
2019-02-14T03:38:52.053Z,6.53
2019-02-14T03:41:22.207Z,6.71
2019-02-14T03:43:52.638Z,6.68
2019-02-14T03:46:22.988Z,6.67
2019-02-14T03:48:53.273Z,6.66
2019-02-14T03:51:23.556Z,6.59
2019-02-14T03:53:53.758Z,6.48
2019-02-14T03:56:23.958Z,6.55
2019-02-14T03:58:54.231Z,6.51
2019-02-14T04:01:24.588Z,6.55
2019-02-14T04:03:54.811Z,6.46
2019-02-14T04:06:29.729Z,6.46
2019-02-14T04:09:10.612Z,6.44
2019-02-14T04:11:41.085Z,6.45
2019-02-14T04:14:11.252Z,6.40
2019-02-14T04:16:41.451Z,6.42
2019-02-14T04:19:11.681Z,6.29
2019-02-14T04:21:42.318Z,6.37
2019-02-14T04:24:12.836Z,6.37
2019-02-14T04:26:52.789Z,6.25
2019-02-14T04:29:24.288Z,6.24
2019-02-14T04:31:54.792Z,6.25
2019-02-14T04:34:25.070Z,6.22
2019-02-14T04:36:55.898Z,6.15
2019-02-14T04:39:33.541Z,6.01
2019-02-14T04:42:06.738Z,5.96
2019-02-14T04:44:39.286Z,6.05
2019-02-14T04:47:09.445Z,5.79
2019-02-14T04:49:39.613Z,5.81
2019-02-14T04:52:13.352Z,5.87
2019-02-14T04:54:45.411Z,6.02
2019-02-14T04:57:18.748Z,5.98
2019-02-14T04:59:50.549Z,5.81
2019-02-14T05:02:20.795Z,5.76
2019-02-14T05:04:52.792Z,5.94
2019-02-14T05:07:24.632Z,5.87
2019-02-14T05:09:56.900Z,5.98
2019-02-14T05:12:26.819Z,5.95
2019-02-14T05:14:57.048Z,5.88
2019-02-14T05:17:27.249Z,5.96
2019-02-14T05:19:57.521Z,5.97
2019-02-14T05:22:32.965Z,6.00
2019-02-14T05:25:05.594Z,6.00
2019-02-14T05:27:36.323Z,5.98
2019-02-14T05:30:07.143Z,5.97
2019-02-14T05:32:37.303Z,5.94
2019-02-14T05:35:12.644Z,5.92
2019-02-14T05:37:42.979Z,5.85
2019-02-14T05:40:14.204Z,5.78
2019-02-14T05:42:46.755Z,5.89
2019-02-14T05:45:16.912Z,5.85
2019-02-14T05:47:47.165Z,5.81
2019-02-14T05:50:18.077Z,5.74
2019-02-14T05:52:51.147Z,5.71
2019-02-14T05:55:24.302Z,5.66
2019-02-14T05:57:54.478Z,5.70
2019-02-14T06:00:24.612Z,5.60
2019-02-14T06:02:54.799Z,5.53
2019-02-14T06:05:24.950Z,5.28
2019-02-14T06:07:55.683Z,5.55
2019-02-14T06:10:25.842Z,5.44
2019-02-14T06:12:56.000Z,5.44
2019-02-14T06:15:26.223Z,5.51
2019-02-14T06:17:56.394Z,5.52
2019-02-14T06:20:26.568Z,5.57
2019-02-14T06:22:56.723Z,5.50
2019-02-14T06:25:26.889Z,5.46
2019-02-14T06:27:58.013Z,5.39
2019-02-14T06:30:28.215Z,5.39
2019-02-14T06:32:58.352Z,5.33
2019-02-14T06:35:28.760Z,5.38
2019-02-14T06:37:59.057Z,5.37
2019-02-14T06:40:29.204Z,5.44
2019-02-14T06:42:59.343Z,5.43
2019-02-14T06:45:29.612Z,5.40
2019-02-14T06:47:59.763Z,5.37
2019-02-14T06:50:34.809Z,5.34
2019-02-14T06:53:01.824Z,5.35
2019-02-14T06:55:32.176Z,5.27
2019-02-14T06:58:02.882Z,5.15
2019-02-14T07:00:33.021Z,5.21
2019-02-14T07:03:03.922Z,5.23
2019-02-14T07:05:34.107Z,5.16
2019-02-14T07:08:04.628Z,5.10
2019-02-14T07:10:34.794Z,4.90
2019-02-14T07:13:05.272Z,4.89
2019-02-14T07:15:35.465Z,4.96
2019-02-14T07:18:07.916Z,4.96
2019-02-14T07:20:39.202Z,5.01
2019-02-14T07:23:09.366Z,4.99
2019-02-14T07:25:39.520Z,4.93
2019-02-14T07:28:09.765Z,4.92
2019-02-14T07:30:39.918Z,4.98
2019-02-14T07:33:10.108Z,4.95
2019-02-14T07:35:40.684Z,4.91
2019-02-14T07:38:10.888Z,4.90
2019-02-14T07:40:41.012Z,4.97
2019-02-14T07:43:11.226Z,5.03
2019-02-14T07:45:41.419Z,5.13
2019-02-14T07:48:11.540Z,5.09
2019-02-14T07:50:41.672Z,5.21
2019-02-14T07:53:11.949Z,5.19
2019-02-14T07:55:42.400Z,5.31
2019-02-14T07:58:13.646Z,5.31
2019-02-14T08:00:43.839Z,5.34
2019-02-14T08:03:14.093Z,5.32
2019-02-14T08:05:44.269Z,5.24
2019-02-14T08:08:14.480Z,5.12
2019-02-14T08:10:44.752Z,5.23
2019-02-14T08:13:15.031Z,5.31
2019-02-14T08:15:45.166Z,5.36
2019-02-14T08:18:15.319Z,5.33
2019-02-14T08:20:45.522Z,5.37
2019-02-14T08:23:17.300Z,5.36
2019-02-14T08:25:47.572Z,5.43
2019-02-14T08:28:17.855Z,5.48
2019-02-14T08:30:47.971Z,5.48
2019-02-14T08:33:18.618Z,5.54
2019-02-14T08:35:48.752Z,5.61
2019-02-14T08:38:18.928Z,5.54
2019-02-14T08:40:49.115Z,5.51
2019-02-14T08:43:19.247Z,5.61
2019-02-14T08:45:49.461Z,5.74
2019-02-14T08:48:20.160Z,5.83
2019-02-14T08:50:51.091Z,5.93
2019-02-14T08:53:21.636Z,5.94
2019-02-14T08:55:51.905Z,5.98
2019-02-14T08:58:22.351Z,6.08
2019-02-14T09:00:52.509Z,6.20
2019-02-14T09:03:22.640Z,6.34
2019-02-14T09:05:52.816Z,6.42
2019-02-14T09:08:22.973Z,6.53
2019-02-14T09:10:54.114Z,6.57
2019-02-14T09:13:26.287Z,6.66
2019-02-14T09:15:56.460Z,6.69
2019-02-14T09:18:26.583Z,6.74
2019-02-14T09:20:56.733Z,6.74
2019-02-14T09:23:28.796Z,6.81
2019-02-14T09:26:02.541Z,6.89
2019-02-14T09:28:32.868Z,6.90
2019-02-14T09:31:04.499Z,6.92
2019-02-14T09:33:34.681Z,6.97
2019-02-14T09:36:04.845Z,6.99
2019-02-14T09:38:35.039Z,7.08
2019-02-14T09:41:05.298Z,7.19
2019-02-14T09:43:35.424Z,7.22
2019-02-14T09:46:05.623Z,7.31
2019-02-14T09:48:35.765Z,7.42
2019-02-14T09:51:07.433Z,7.45
2019-02-14T09:53:37.708Z,7.54
2019-02-14T09:56:07.962Z,7.54
2019-02-14T09:58:38.652Z,7.65
2019-02-14T10:01:08.845Z,7.81
2019-02-14T10:03:38.941Z,7.84
2019-02-14T10:06:09.115Z,7.82
2019-02-14T10:08:39.388Z,7.92
2019-02-14T10:11:09.891Z,7.95
2019-02-14T10:13:41.187Z,7.99
2019-02-14T10:16:12.408Z,8.11
2019-02-14T10:18:42.665Z,8.10
2019-02-14T10:21:12.757Z,8.05
2019-02-14T10:23:45.315Z,7.96
2019-02-14T10:26:18.452Z,7.94
2019-02-14T10:28:48.594Z,7.98
2019-02-14T10:31:18.773Z,8.05
2019-02-14T10:33:48.966Z,8.12
2019-02-14T10:36:19.267Z,8.25
2019-02-14T10:38:49.474Z,8.30
2019-02-14T10:41:19.604Z,8.30
2019-02-14T10:43:49.845Z,8.29
2019-02-14T10:46:19.999Z,8.37
2019-02-14T10:48:50.319Z,8.43
2019-02-14T10:51:20.463Z,8.40
2019-02-14T10:53:50.745Z,8.44
2019-02-14T10:56:21.010Z,8.55
2019-02-14T10:58:51.169Z,8.68
2019-02-14T11:01:21.364Z,8.63
2019-02-14T11:03:51.506Z,8.66
2019-02-14T11:06:22.110Z,8.64
2019-02-14T11:08:52.320Z,8.71
2019-02-14T11:11:22.432Z,8.80
2019-02-14T11:13:52.591Z,8.92
2019-02-14T11:16:22.714Z,9.00
2019-02-14T11:18:52.900Z,9.03
2019-02-14T11:21:23.082Z,9.08
2019-02-14T11:23:53.276Z,9.13
2019-02-14T11:26:23.410Z,9.21
2019-02-14T11:28:53.790Z,9.20
2019-02-14T11:31:24.418Z,9.26
2019-02-14T11:33:54.563Z,9.31
2019-02-14T11:36:24.715Z,9.38
2019-02-14T11:38:55.090Z,9.31
2019-02-14T11:41:25.254Z,9.40
2019-02-14T11:43:55.751Z,9.40
2019-02-14T11:46:25.930Z,9.37
2019-02-14T11:48:56.080Z,9.38
2019-02-14T11:51:26.369Z,9.42
2019-02-14T11:53:56.680Z,9.44
2019-02-14T11:56:26.834Z,9.49
2019-02-14T11:58:58.040Z,9.49
2019-02-14T12:01:28.205Z,9.57
2019-02-14T12:03:58.371Z,9.62
2019-02-14T12:06:28.547Z,9.72
2019-02-14T12:09:00.368Z,9.76
2019-02-14T12:11:30.761Z,9.78
2019-02-14T12:14:00.912Z,9.79
2019-02-14T12:16:31.030Z,9.76
2019-02-14T12:19:01.150Z,9.73
2019-02-14T12:21:31.260Z,9.78
2019-02-14T12:24:01.383Z,9.80
2019-02-14T12:26:31.543Z,9.84
2019-02-14T12:29:01.738Z,9.82
2019-02-14T12:31:33.373Z,9.79
2019-02-14T12:34:04.234Z,9.83
2019-02-14T12:36:34.397Z,9.90
2019-02-14T12:39:09.806Z,9.92
2019-02-14T12:41:38.157Z,9.96
2019-02-14T12:44:08.578Z,10.01
2019-02-14T12:46:39.053Z,10.02
2019-02-14T12:49:10.454Z,10.04
2019-02-14T12:51:41.875Z,10.04
2019-02-14T12:54:12.002Z,10.05
2019-02-14T12:56:42.103Z,10.10
2019-02-14T12:59:12.066Z,10.09
2019-02-14T13:01:42.181Z,10.06
2019-02-14T13:04:12.303Z,10.08
2019-02-14T13:06:43.425Z,10.10
2019-02-14T13:09:20.171Z,10.16
2019-02-14T13:11:45.833Z,10.20
2019-02-14T13:14:16.039Z,10.21
2019-02-14T13:16:46.210Z,10.23
2019-02-14T13:19:16.355Z,10.27
2019-02-14T13:21:46.508Z,10.27
2019-02-14T13:24:16.573Z,10.28
2019-02-14T13:26:46.692Z,10.28
2019-02-14T13:29:16.813Z,10.32
2019-02-14T13:31:47.395Z,10.29
2019-02-14T13:34:17.535Z,10.27
2019-02-14T13:36:47.829Z,10.27
2019-02-14T13:39:17.984Z,10.24
2019-02-14T13:41:48.117Z,10.29
2019-02-14T13:44:18.315Z,10.29
2019-02-14T13:46:48.481Z,10.34
2019-02-14T13:49:19.009Z,10.33
2019-02-14T13:51:49.135Z,10.35
2019-02-14T13:54:19.711Z,10.36
2019-02-14T13:56:54.146Z,10.40
2019-02-14T13:59:21.743Z,10.38
2019-02-14T14:01:51.928Z,10.35
2019-02-14T14:04:22.061Z,10.35
2019-02-14T14:06:52.453Z,10.41
2019-02-14T14:09:22.787Z,10.40
2019-02-14T14:11:54.545Z,10.39
2019-02-14T14:14:24.798Z,10.37
2019-02-14T14:16:54.910Z,10.35
2019-02-14T14:19:28.325Z,10.38
2019-02-14T14:21:58.111Z,10.38
2019-02-14T14:24:28.319Z,10.34
2019-02-14T14:26:58.442Z,10.36
2019-02-14T14:29:28.588Z,10.37
2019-02-14T14:31:58.908Z,10.33
2019-02-14T14:34:29.045Z,10.34
2019-02-14T14:36:59.190Z,10.33
2019-02-14T14:39:29.567Z,10.35
2019-02-14T14:41:59.702Z,10.29
2019-02-14T14:44:42.857Z,10.31
2019-02-14T14:47:16.162Z,10.31
2019-02-14T14:49:46.301Z,10.30
2019-02-14T14:52:18.882Z,10.29
2019-02-14T14:54:49.147Z,10.28
2019-02-14T14:57:19.286Z,10.24
2019-02-14T14:59:51.150Z,10.23
2019-02-14T15:02:21.298Z,10.23
2019-02-14T15:04:51.488Z,10.24
2019-02-14T15:07:23.102Z,10.19
2019-02-14T15:09:57.426Z,10.16
2019-02-14T15:12:26.060Z,10.14
2019-02-14T15:14:56.494Z,10.12
2019-02-14T15:17:27.125Z,10.13
2019-02-14T15:19:57.289Z,10.11
2019-02-14T15:22:28.951Z,10.06
2019-02-14T15:24:59.157Z,10.03
2019-02-14T15:27:29.421Z,10.04
2019-02-14T15:29:59.544Z,10.03
2019-02-14T15:32:29.874Z,10.01
2019-02-14T15:35:00.023Z,9.98
2019-02-14T15:37:30.193Z,9.97
2019-02-14T15:40:08.650Z,9.88
2019-02-14T15:42:32.482Z,9.84
2019-02-14T15:45:02.699Z,9.80
2019-02-14T15:47:33.828Z,9.78
2019-02-14T15:50:06.068Z,9.73
2019-02-14T15:52:36.054Z,9.66
2019-02-14T15:55:06.298Z,9.63
2019-02-14T15:57:36.436Z,9.60
2019-02-14T16:00:10.468Z,9.57
2019-02-14T16:02:47.908Z,9.49
2019-02-14T16:05:20.903Z,9.42
2019-02-14T16:07:51.123Z,9.34
2019-02-14T16:10:24.995Z,9.29
2019-02-14T16:12:56.377Z,9.27
2019-02-14T16:15:31.057Z,9.23
2019-02-14T16:18:02.767Z,9.17
2019-02-14T16:20:32.990Z,9.10
2019-02-14T16:23:04.211Z,9.03
2019-02-14T16:25:35.127Z,8.99
2019-02-14T16:28:05.245Z,8.93
2019-02-14T16:30:38.463Z,8.85
2019-02-14T16:33:08.802Z,8.78
2019-02-14T16:35:42.149Z,8.64
2019-02-14T16:38:14.051Z,8.54
2019-02-14T16:40:44.571Z,8.40
2019-02-14T16:43:14.850Z,8.26
2019-02-14T16:45:45.219Z,8.19
2019-02-14T16:48:25.334Z,8.10
2019-02-14T16:50:56.829Z,8.04
2019-02-14T16:53:26.955Z,7.94
2019-02-14T16:56:02.094Z,7.86
2019-02-14T16:58:29.502Z,7.80
2019-02-14T17:01:01.344Z,7.71
2019-02-14T17:03:32.597Z,7.65
2019-02-14T17:06:02.803Z,7.59
2019-02-14T17:08:33.906Z,7.51
2019-02-14T17:11:04.123Z,7.47
2019-02-14T17:13:34.206Z,7.41
2019-02-14T17:16:05.020Z,7.33
2019-02-14T17:18:41.382Z,7.25
2019-02-14T17:21:13.331Z,7.18
2019-02-14T17:23:43.689Z,7.14
2019-02-14T17:26:14.981Z,7.07
2019-02-14T17:28:45.200Z,7.05
2019-02-14T17:31:15.454Z,7.01
2019-02-14T17:33:48.768Z,6.92
2019-02-14T17:36:26.098Z,6.88
2019-02-14T17:38:56.313Z,6.85
2019-02-14T17:41:26.499Z,6.80
2019-02-14T17:44:05.839Z,6.75
2019-02-14T17:46:41.492Z,6.70
2019-02-14T17:49:13.367Z,6.65
2019-02-14T17:51:45.269Z,6.63
2019-02-14T17:54:15.548Z,6.58
2019-02-14T17:56:45.730Z,6.53
2019-02-14T17:59:21.211Z,6.47
2019-02-14T18:01:55.473Z,6.43
2019-02-14T18:04:27.364Z,6.37
2019-02-14T18:06:57.900Z,6.32
2019-02-14T18:09:28.360Z,6.27
2019-02-14T18:11:58.551Z,6.23
2019-02-14T18:14:28.812Z,6.14
2019-02-14T18:17:00.254Z,6.14
2019-02-14T18:19:33.026Z,6.12
2019-02-14T18:22:03.231Z,6.09
2019-02-14T18:24:33.417Z,6.01
2019-02-14T18:27:03.630Z,6.00
2019-02-14T18:29:33.853Z,5.99
2019-02-14T18:32:04.001Z,5.95
2019-02-14T18:34:34.322Z,5.93
2019-02-14T18:37:04.665Z,5.87
2019-02-14T18:39:34.818Z,5.81
2019-02-14T18:42:05.271Z,5.79
2019-02-14T18:44:35.803Z,5.76
2019-02-14T18:47:06.207Z,5.73
2019-02-14T18:49:36.507Z,5.68
2019-02-14T18:52:08.585Z,5.66
2019-02-14T18:54:38.921Z,5.61
2019-02-14T18:57:09.162Z,5.59
2019-02-14T18:59:39.417Z,5.57
2019-02-14T19:02:09.538Z,5.53
2019-02-14T19:04:39.821Z,5.49
2019-02-14T19:07:10.266Z,5.44
2019-02-14T19:09:41.297Z,5.40
2019-02-14T19:12:13.736Z,5.36
2019-02-14T19:14:44.088Z,5.35
2019-02-14T19:17:19.363Z,5.33
2019-02-14T19:19:49.632Z,5.30
2019-02-14T19:22:19.894Z,5.27
2019-02-14T19:24:51.101Z,5.24
2019-02-14T19:27:21.277Z,5.22
2019-02-14T19:29:51.541Z,5.21
2019-02-14T19:32:21.705Z,5.17
2019-02-14T19:34:52.513Z,5.15
2019-02-14T19:37:22.826Z,5.13
2019-02-14T19:39:55.016Z,5.12
2019-02-14T19:42:25.557Z,5.09
2019-02-14T19:44:56.073Z,5.06
2019-02-14T19:47:27.290Z,5.05
2019-02-14T19:49:58.508Z,5.03
2019-02-14T19:52:29.067Z,4.98
2019-02-14T19:54:59.324Z,4.96
2019-02-14T19:57:29.525Z,4.95
2019-02-14T19:59:59.935Z,4.91
2019-02-14T20:02:30.214Z,4.89
2019-02-14T20:05:00.544Z,4.87
2019-02-14T20:07:31.032Z,4.90
2019-02-14T20:10:01.240Z,4.88
2019-02-14T20:12:31.597Z,4.87
2019-02-14T20:15:01.889Z,4.87
2019-02-14T20:17:32.536Z,4.84
2019-02-14T20:20:03.019Z,4.83
2019-02-14T20:22:33.235Z,4.82
2019-02-14T20:25:03.474Z,4.78
2019-02-14T20:27:33.751Z,4.78
2019-02-14T20:30:04.200Z,4.76
2019-02-14T20:32:34.745Z,4.75
2019-02-14T20:35:05.171Z,4.73
2019-02-14T20:37:35.552Z,4.72
2019-02-14T20:40:07.762Z,4.71
2019-02-14T20:42:38.312Z,4.68
2019-02-14T20:45:09.153Z,4.67
2019-02-14T20:47:40.583Z,4.65
2019-02-14T20:50:12.473Z,4.64
2019-02-14T20:52:42.829Z,4.62
2019-02-14T20:55:15.010Z,4.61
2019-02-14T20:57:45.779Z,4.56
2019-02-14T21:00:30.105Z,4.54
2019-02-14T21:03:00.535Z,4.52
2019-02-14T21:05:30.984Z,4.49
2019-02-14T21:08:01.333Z,4.49
2019-02-14T21:10:34.401Z,4.47
2019-02-14T21:13:07.760Z,4.45
2019-02-14T21:15:41.201Z,4.45
2019-02-14T21:18:17.612Z,4.41
2019-02-14T21:20:48.113Z,4.40
2019-02-14T21:23:18.575Z,4.38
2019-02-14T21:25:48.800Z,4.38
2019-02-14T21:28:19.126Z,4.37
2019-02-14T21:30:49.365Z,4.37
2019-02-14T21:33:19.712Z,4.33
2019-02-14T21:35:50.069Z,4.31
2019-02-14T21:38:20.369Z,4.28
2019-02-14T21:40:50.693Z,4.28
2019-02-14T21:43:20.849Z,4.26
2019-02-14T21:45:52.215Z,4.19
2019-02-14T21:48:22.494Z,4.20
2019-02-14T21:50:52.699Z,4.22
2019-02-14T21:53:22.813Z,4.19
2019-02-14T21:55:53.018Z,4.19
2019-02-14T21:58:24.331Z,4.17
2019-02-14T22:00:54.836Z,4.08
2019-02-14T22:03:26.057Z,3.88
2019-02-14T22:05:56.354Z,4.01
2019-02-14T22:08:26.647Z,4.02
2019-02-14T22:10:56.890Z,4.01
2019-02-14T22:13:27.087Z,3.99
2019-02-14T22:15:57.203Z,3.99
2019-02-14T22:18:27.346Z,4.00
2019-02-14T22:20:59.170Z,4.00
2019-02-14T22:23:29.382Z,3.96
2019-02-14T22:25:59.581Z,3.94
2019-02-14T22:28:29.727Z,3.94
2019-02-14T22:30:59.863Z,3.89
2019-02-14T22:33:30.060Z,3.88
2019-02-14T22:36:00.298Z,3.84
2019-02-14T22:38:30.415Z,3.88
2019-02-14T22:41:00.584Z,3.83
2019-02-14T22:43:30.778Z,3.79
2019-02-14T22:46:00.978Z,3.76
2019-02-14T22:48:31.242Z,3.72
2019-02-14T22:51:01.428Z,3.57
2019-02-14T22:53:31.626Z,3.62
2019-02-14T22:56:01.754Z,3.62
2019-02-14T22:58:32.952Z,3.67
2019-02-14T23:01:03.300Z,3.66
2019-02-14T23:03:34.078Z,3.59
2019-02-14T23:06:04.170Z,3.59
2019-02-14T23:08:34.624Z,3.57
2019-02-14T23:11:04.960Z,3.59
2019-02-14T23:13:35.152Z,3.57
2019-02-14T23:16:05.390Z,3.58
2019-02-14T23:18:35.572Z,3.53
2019-02-14T23:21:05.696Z,3.52
2019-02-14T23:23:36.880Z,3.52
2019-02-14T23:26:07.330Z,3.52
2019-02-14T23:28:37.591Z,3.52
2019-02-14T23:31:07.796Z,3.48
2019-02-14T23:33:37.936Z,3.51
2019-02-14T23:36:08.038Z,3.52
2019-02-14T23:38:38.173Z,3.50
2019-02-14T23:41:08.278Z,3.46
2019-02-14T23:43:38.423Z,3.48
2019-02-14T23:46:08.584Z,3.44
2019-02-14T23:48:38.761Z,3.42
2019-02-14T23:51:10.045Z,3.43
2019-02-14T23:53:40.204Z,3.42
2019-02-14T23:56:10.406Z,3.39
2019-02-14T23:58:41.382Z,3.37
